Detalii statie UNIVERSITATEA AGRICOLA IASI [0000198B]

Toti senzorii

Date Temperatura solului [C]Precipitatii [mm]Voltaj baterie [mV]HC Air temperature [C]HC Relative humidity [%]Punctul de roua [C]
medieminmaxsumaultimamedieminmaxmediemediemin
2018-08-12 11:00:00 19.8 19.7 20 0 7304 24.64 23.63 25.8 99.31 24.4 23.6
2018-08-12 12:00:00 20.2 19.9 20.5 0 7254 25.56 24.62 26.51 96.75 24.9 24.4
2018-08-12 13:00:00 20.5 20.3 20.7 0 7304 26.32 25.82 26.75 95.87 25.4 24.8
2018-08-12 14:00:00 20.8 20.6 21.2 0 7304 27.52 26.59 28.83 92.21 25.9 24.7
2018-08-12 15:00:00 21.2 21 21.4 0 7304 28.44 27.82 29.21 90.32 26.5 25.5
2018-08-12 16:00:00 21.4 21.1 21.6 0 7166 28.34 27.8 28.83 88.24 26 25.8
2018-08-12 17:00:00 21.6 21.5 21.7 0 7158 28.08 27.5 28.98 88.93 25.9 25.1
2018-08-12 18:00:00 21.6 21.4 21.9 0 7148 27.85 27.68 28.06 89.85 25.9 25.3
2018-08-12 19:00:00 21.5 21.5 21.7 0 7020 26.14 24.54 27.54 95.63 25.2 24.5
2018-08-12 20:00:00 21.3 21 21.5 0 6952 22.83 21.41 24.11 100 22.7 21.4
2018-08-12 21:00:00 20.9 20.7 21.3 0 6942 20.13 19.33 20.99 100 20 19.3
2018-08-12 22:00:00 20.6 20.4 20.8 0 6932 19.4 18.91 20.25 100 19.3 18.9
2018-08-12 23:00:00 20.3 20.2 20.5 0 6922 18.61 18.17 19.78 100 18.5 18.1
2018-08-13 00:00:00 20.1 19.8 20.3 0 6922 17.64 17.31 18.17 100 17.6 17.3
2018-08-13 01:00:00 19.9 19.8 20.1 0 6904 17.12 16.48 17.79 100 17 16.4
2018-08-13 02:00:00 19.6 19.5 20 0 6914 16.44 16.16 16.83 100 16.4 16.1
2018-08-13 03:00:00 19.4 19.3 19.6 0 6904 16.2 15.61 16.56 100 16.1 15.6
2018-08-13 04:00:00 19.3 19.1 19.5 0 6894 15.5 15.11 15.85 100 15.4 15.1
2018-08-13 05:00:00 19 18.9 19.1 0 6894 15.43 15.06 15.73 100 15.3 15
2018-08-13 06:00:00 18.8 18.7 19.1 0 6952 15.31 14.67 16.21 100 15.2 14.6
2018-08-13 07:00:00 18.9 18.9 19.1 0 7324 17.23 15.44 19.39 100 17.1 15.4
2018-08-13 08:00:00 19.2 19.1 19.4 0 7314 20.88 19.47 22.95 100 20.8 19.4
2018-08-13 09:00:00 19.5 19.4 19.7 0 7304 24.35 23.19 25.51 100 24.3 23.1
2018-08-13 10:00:00 19.9 19.6 20.2 0 7304 26.78 25.53 28.09 100 26.7 25.5
2018-08-13 11:00:00 20.2 20.1 20.6 0 7304 28.42 27.72 29.28 96.68 27.7 26.6
2018-08-13 12:00:00 20.6 20.4 20.8 0 7226 29.4 28.79 29.97 91.74 27.7 27
2018-08-13 13:00:00 21.1 20.8 21.4 0 7304 29.69 29.31 30.21 87.32 27.2 26.4
2018-08-13 14:00:00 21.4 21.1 21.7 0 7304 30.4 29.91 31.07 86.31 27.7 26.9
2018-08-13 15:00:00 21.7 21.6 22 0 7304 30.99 30.71 31.45 82.39 27.4 26.5
2018-08-13 16:00:00 21.9 21.8 22 0 7176 30.83 30.54 31.07 80.84 27 26.1
2018-08-13 17:00:00 22 22 22.1 0 7128 30.55 30.13 30.95 81.12 26.8 26
2018-08-13 18:00:00 22 22 22.2 0 7108 29.49 28.82 30.23 84.47 26.4 26
2018-08-13 19:00:00 22 21.9 22.1 0 7010 27.46 26.61 28.58 94.52 26.3 25.7
2018-08-13 20:00:00 21.8 21.7 22 0 6932 25.07 23.68 26.77 99.46 24.9 23.6
2018-08-13 21:00:00 21.5 21.4 21.7 0 6942 22.09 21.17 23.22 100 22 21.1
2018-08-13 22:00:00 21.1 20.9 21.4 0 6922 21.67 21.06 21.89 100 21.6 21
2018-08-13 23:00:00 20.9 20.7 21.2 0 6922 20.51 20.04 21.02 100 20.4 20
2018-08-14 00:00:00 20.6 20.4 20.7 0 6894 20.7 20.24 21.16 99.92 20.6 20.2
2018-08-14 01:00:00 20.3 20.2 20.8 0 6864 20.56 20.23 20.95 98.75 20.2 20
2018-08-14 02:00:00 20.2 20.1 20.3 0 6864 20.36 20.09 20.71 95.55 19.4 19.2
2018-08-14 03:00:00 20.1 19.8 20.2 0 6864 19.98 19.81 20.31 94.14 18.8 18.6
2018-08-14 04:00:00 19.9 19.9 20.1 0 6864 19.93 19.72 20.14 90.75 18.2 18
2018-08-14 05:00:00 19.7 19.6 19.8 0 6854 19.51 18.86 20.05 91.34 17.9 17.6
2018-08-14 06:00:00 19.5 19.5 19.8 0 6914 18.74 18.42 19.61 97.28 18.2 17.6
2018-08-14 07:00:00 19.5 19.5 19.8 0 7314 20.12 19.02 21.6 99.85 20 19
2018-08-14 08:00:00 19.7 19.6 20 0 7314 23.23 21.75 25.17 95.76 22.3 21.5